الصفحة الرئيسية
METAR-TAF:

METAR-TAF

مطار :

مطار يو تاباو الدولي

باتايا-Rayong, تايلاند

دائرة عرض: 12-38N, خط طول: 101-21E, ارتفاع: 3 متر

مراقبة الطقس الحالي

تاريخ ووقت الإصدار 10 دقيقة قبل الساعة 23:00UTC
ريح 3 عقدة من الجنوب الغربي
درجة الحرارة 25°درجة مئوية
الرطوبة 89%
ضغط 1006 hPa
الرؤية 10 كم أو أكثر
غيوم قليلة على ارتفاع 2000 قدم

METAR: VTBU 252300Z 22003KT 9999 FEW020 25/23 Q1006 NOSIG

زمن: 06:10 (23:10 UTC)

توقعات

تاريخ ووقت الإصدار 6ساعات و 10 دقيقة قبل الساعة 17:00UTC
التوقعات صالحة من25 الساعة 18 UTC إلى 26 الساعة 18 UTC
ريح 8 عقدة من الغرب/الجنوب الغربي
الرؤية 10 كم أو أكثر
غيوم قليلة على ارتفاع 2000 قدم
غيوم متفرقة على ارتفاع 10000 قدم
مؤقت
من 26 الساعة 06 UTC إلى 26 الساعة 12 UTC
ريح 15 عقدةمن اتجاهات متغيرة
الرؤية: 5000 متر
غيوم قليلة على ارتفاع 1800 قدم, مزنة ركامية.
غيوم متفرقة على ارتفاع 3500 قدم
غيوم مفككة على ارتفاع 10000 قدم
عاصفة رعدية, مطر

TAF: VTBU 251700Z 2518/2618 24008KT 9999 FEW020 SCT100 TEMPO 2606/2612 VRB15KT 5000 TSRA FEW018CB SCT035 BKN100

أرصاد الطقس والتوقعات من أكثر من 4000 مطار (تقارير الطقس للمطار METAR والتنبؤ بالطقس بالمطارTAF).

المحطات المتاحة هي النقط الصفراء والحمراء على الخريطة.

حرك المؤشر فوق النقطة لمعرفة اسم المحطة.

ثم انقر لمعرفة أرصاد وتوقعات الطقس.

لتغيير الخارطة: اضغط على الأزرار الخضراء مع رمز الصليب الأسود للتكبير. على الزر الأخضر مع شرطة للتصغير، أو على الأسهم الخضراء للخرائط المجاورة.


METAR-TAF: